Time;durP1;ratioP1;P1;durP2;ratioP2;P2;SDS_P1;SDS_P2;PMS_P1;PMS_P2;Temp;Humidity;BMP_temperature;BMP_pressure;BME280_temperature;BME280_humidity;BME280_pressure;Samples;Min_cycle;Max_cycle;Signal;HPM_P1;HPM_P2
2021/10/08 00:03:44;;;;;;;33.05;14.93;;;;;;;6.01;89.00;100184.76;4010567;87;21146;-82
2021/10/08 00:09:45;;;;;;;35.13;15.20;;;;;;;5.95;88.20;100196.89;4004433;86;21065;-82
2021/10/08 00:15:47;;;;;;;31.60;14.83;;;;;;;5.82;88.03;100198.38;4006089;86;21064;-82
2021/10/08 00:21:48;;;;;;;36.15;15.32;;;;;;;5.65;88.05;100198.28;4005930;87;21053;-84
2021/10/08 00:27:49;;;;;;;34.03;15.43;;;;;;;5.56;87.96;100192.02;4042097;86;21600;-83
2021/10/08 00:33:51;;;;;;;36.20;14.73;;;;;;;5.46;87.95;100201.23;4051927;85;21075;-82
2021/10/08 00:39:52;;;;;;;32.08;13.53;;;;;;;5.40;87.98;100205.75;4062450;86;21054;-82
2021/10/08 00:45:53;;;;;;;25.60;12.82;;;;;;;5.32;88.31;100205.95;4060177;86;21560;-82
2021/10/08 00:51:54;;;;;;;27.67;13.15;;;;;;;5.47;89.51;100205.55;4051610;86;21019;-83
2021/10/08 00:57:59;;;;;;;26.90;13.05;;;;;;;5.67;89.70;100214.50;4055443;86;21598;-82
2021/10/08 01:04:00;;;;;;;25.88;12.25;;;;;;;5.60;88.71;100216.88;4033989;86;21152;-84
2021/10/08 01:10:04;;;;;;;36.03;13.50;;;;;;;5.50;89.01;100223.13;4055489;86;21082;-83
2021/10/08 01:16:07;;;;;;;27.00;12.37;;;;;;;5.30;88.43;100224.47;4061765;86;21075;-83
2021/10/08 01:22:11;;;;;;;23.00;12.93;;;;;;;5.11;88.92;100233.91;4062435;86;21103;-83
2021/10/08 01:28:14;;;;;;;41.10;12.80;;;;;;;5.21;89.71;100225.52;3958351;87;21106;-82
2021/10/08 01:34:17;;;;;;;34.27;14.28;;;;;;;5.29;89.94;100226.94;4005444;87;21100;-81
2021/10/08 01:40:20;;;;;;;30.60;13.68;;;;;;;5.12;88.97;100228.73;3937110;88;21391;-82
2021/10/08 01:46:23;;;;;;;35.03;13.58;;;;;;;4.97;89.01;100235.88;3934393;88;21105;-83
2021/10/08 01:52:25;;;;;;;29.07;13.43;;;;;;;4.88;88.79;100233.66;3908725;89;21102;-82
2021/10/08 01:58:26;;;;;;;30.02;13.80;;;;;;;4.77;88.71;100230.39;4006028;87;21080;-82
2021/10/08 02:04:29;;;;;;;24.92;12.85;;;;;;;4.59;88.33;100229.98;4006405;87;21093;-86
2021/10/08 02:10:30;;;;;;;22.27;12.28;;;;;;;4.55;88.84;100235.23;4010879;87;21088;-82
2021/10/08 02:16:33;;;;;;;32.98;13.53;;;;;;;4.55;88.97;100241.20;3985848;87;21631;-83
2021/10/08 02:22:36;;;;;;;27.07;12.55;;;;;;;4.42;88.82;100246.90;4006252;87;21068;-83
2021/10/08 02:28:38;;;;;;;30.08;13.90;;;;;;;4.27;88.86;100247.23;3992179;87;21056;-82
2021/10/08 02:34:39;;;;;;;28.10;12.60;;;;;;;4.21;89.32;100247.64;3985490;87;21077;-82
2021/10/08 02:40:41;;;;;;;31.42;13.72;;;;;;;4.22;89.72;100256.02;3971823;87;21514;-83
2021/10/08 02:46:42;;;;;;;19.20;11.45;;;;;;;4.18;89.36;100255.02;3984743;87;21042;-82
2021/10/08 02:52:44;;;;;;;29.87;12.03;;;;;;;4.14;90.01;100251.30;3985975;87;21035;-82
2021/10/08 02:58:46;;;;;;;24.47;13.03;;;;;;;4.13;90.20;100249.70;3982920;87;21059;-82
2021/10/08 03:04:47;;;;;;;22.00;11.93;;;;;;;4.22;90.76;100258.18;3985525;87;21092;-84
2021/10/08 03:10:49;;;;;;;26.57;12.58;;;;;;;4.31;90.59;100260.42;3985132;87;21133;-82
2021/10/08 03:16:51;;;;;;;28.87;13.10;;;;;;;4.36;90.36;100262.22;3982376;87;21152;-83
2021/10/08 03:22:53;;;;;;;23.45;12.20;;;;;;;4.28;89.82;100271.06;3979055;86;27461;-82
2021/10/08 03:28:55;;;;;;;28.87;12.90;;;;;;;4.20;89.83;100271.22;4011202;86;21093;-82
2021/10/08 03:34:56;;;;;;;27.32;13.22;;;;;;;4.17;89.80;100275.08;4035696;86;21093;-82
2021/10/08 03:41:08;;;;;;;32.45;12.85;;;;;;;4.07;89.81;100276.08;4027043;86;21503;-82
2021/10/08 03:47:14;;;;;;;28.92;14.23;;;;;;;3.84;89.62;100289.81;4029026;86;21038;-82
2021/10/08 03:53:08;;;;;;;30.80;13.20;;;;;;;3.71;89.80;100285.20;4035456;86;21094;-81
2021/10/08 03:59:10;;;;;;;30.95;14.03;;;;;;;3.61;89.71;100289.44;4031756;86;21491;-81
2021/10/08 04:05:11;;;;;;;26.87;13.43;;;;;;;3.45;89.97;100293.50;4025568;86;21575;-82
2021/10/08 04:11:14;;;;;;;26.15;13.70;;;;;;;3.38;90.25;100303.38;4042917;86;21081;-81
2021/10/08 04:17:15;;;;;;;28.23;14.43;;;;;;;3.37;90.39;100300.39;4028443;86;21550;-81
2021/10/08 04:23:16;;;;;;;29.35;14.18;;;;;;;3.33;90.57;100302.64;4032283;86;21089;-81
2021/10/08 04:29:18;;;;;;;31.82;13.98;;;;;;;3.28;90.33;100315.70;3954540;86;21108;-82
2021/10/08 04:35:20;;;;;;;27.37;13.60;;;;;;;3.20;90.73;100318.54;3909727;89;21573;-81
2021/10/08 04:41:23;;;;;;;27.80;14.45;;;;;;;3.20;90.84;100317.73;3801543;90;21140;-82
2021/10/08 04:47:25;;;;;;;31.17;14.00;;;;;;;3.23;90.91;100327.42;3824295;90;21111;-82
2021/10/08 04:53:27;;;;;;;29.70;14.18;;;;;;;3.24;91.03;100324.17;3819374;90;21148;-81
2021/10/08 04:59:30;;;;;;;34.15;14.58;;;;;;;3.28;90.99;100337.36;3822141;90;21106;-82
2021/10/08 05:05:33;;;;;;;32.05;14.43;;;;;;;3.19;90.83;100342.63;3821881;90;21571;-82
2021/10/08 05:11:40;;;;;;;37.63;15.88;;;;;;;3.19;91.08;100348.03;3823083;90;21632;-82
2021/10/08 05:17:42;;;;;;;29.90;13.62;;;;;;;3.21;91.31;100355.88;3819493;90;21107;-82
2021/10/08 05:23:43;;;;;;;30.17;14.13;;;;;;;3.29;91.67;100363.88;3803022;90;21170;-82
2021/10/08 05:29:45;;;;;;;31.27;14.15;;;;;;;3.24;91.38;100366.91;3868942;88;21686;-82
2021/10/08 05:35:48;;;;;;;33.45;15.43;;;;;;;3.31;91.47;100375.20;3892808;88;21101;-82
2021/10/08 05:41:51;;;;;;;32.08;15.35;;;;;;;3.36;91.59;100373.77;3991188;86;21629;-81
2021/10/08 05:47:52;;;;;;;33.70;13.83;;;;;;;3.47;91.57;100384.70;4008838;86;21117;-82
2021/10/08 05:53:54;;;;;;;26.50;13.13;;;;;;;3.56;91.53;100390.51;3999825;86;21445;-82
2021/10/08 05:59:55;;;;;;;24.75;12.33;;;;;;;3.68;92.07;100390.06;3995521;86;21058;-82
2021/10/08 06:05:57;;;;;;;28.10;12.90;;;;;;;4.04;92.20;100399.20;4002299;86;21069;-82
2021/10/08 06:11:58;;;;;;;36.42;13.53;;;;;;;4.47;91.64;100401.89;3997321;86;21152;-82
2021/10/08 06:24:18;;;;;;;25.12;12.95;;;;;;;5.08;91.22;100405.52;4535560;76;22861;-81
2021/10/08 06:30:20;;;;;;;25.48;12.95;;;;;;;5.11;91.27;100417.11;4412576;78;21043;-81
2021/10/08 06:36:22;;;;;;;26.65;12.35;;;;;;;5.10;91.37;100426.38;4436070;78;21074;-81
2021/10/08 06:42:24;;;;;;;31.68;13.22;;;;;;;4.97;91.45;100431.27;4443869;78;21033;-81
2021/10/08 06:48:28;;;;;;;25.40;13.65;;;;;;;5.05;91.38;100429.20;4436962;78;21003;-82
2021/10/08 06:54:29;;;;;;;25.55;14.05;;;;;;;5.17;91.39;100428.92;4420924;78;20991;-81
2021/10/08 07:00:31;;;;;;;26.17;13.18;;;;;;;5.27;91.37;100435.50;4203290;78;30330;-80
2021/10/08 07:06:33;;;;;;;29.02;13.62;;;;;;;5.52;91.16;100446.34;4076128;86;21978;-80
2021/10/08 07:12:36;;;;;;;34.48;14.78;;;;;;;5.77;91.07;100443.03;4077285;86;21094;-80
2021/10/08 07:18:38;;;;;;;29.15;14.55;;;;;;;5.92;90.94;100445.44;4084409;86;21125;-82
2021/10/08 07:24:39;;;;;;;32.67;13.75;;;;;;;6.15;90.59;100442.36;4082064;86;21042;-82
2021/10/08 07:30:41;;;;;;;34.03;14.03;;;;;;;6.30;90.48;100443.89;4082585;86;21447;-82
2021/10/08 07:36:42;;;;;;;35.95;14.33;;;;;;;6.62;90.45;100447.67;4080186;86;21066;-82
2021/10/08 07:42:45;;;;;;;34.78;15.48;;;;;;;7.05;90.05;100446.44;4085162;86;21062;-82
2021/10/08 07:48:47;;;;;;;40.48;14.87;;;;;;;7.33;90.16;100449.16;4077917;86;21080;-81
2021/10/08 07:54:49;;;;;;;33.42;14.13;;;;;;;7.63;89.57;100450.93;4085453;85;21535;-83
2021/10/08 08:00:50;;;;;;;33.02;14.78;;;;;;;7.87;89.18;100446.63;4080168;86;21111;-82
2021/10/08 08:06:51;;;;;;;32.13;13.78;;;;;;;8.03;88.34;100457.25;4085302;85;21102;-82
2021/10/08 08:12:52;;;;;;;32.60;12.25;;;;;;;8.15;88.16;100455.23;4081614;86;21008;-81
2021/10/08 08:18:53;;;;;;;25.95;12.55;;;;;;;8.34;87.68;100459.81;4082806;86;21083;-82
2021/10/08 08:24:55;;;;;;;23.20;13.13;;;;;;;8.59;87.29;100463.03;4088203;86;21053;-83
2021/10/08 08:30:56;;;;;;;35.88;13.70;;;;;;;8.91;86.07;100462.98;4077853;86;21594;-82
2021/10/08 08:36:58;;;;;;;24.75;12.50;;;;;;;9.46;85.79;100464.42;4072872;86;21605;-84
2021/10/08 08:43:00;;;;;;;22.58;12.37;;;;;;;10.41;86.06;100457.59;4078659;86;21534;-81
2021/10/08 08:49:03;;;;;;;31.48;12.53;;;;;;;11.27;85.04;100462.80;4082524;86;21086;-81
2021/10/08 08:55:05;;;;;;;23.73;12.47;;;;;;;11.69;82.41;100463.56;4076129;86;20995;-84
2021/10/08 09:01:07;;;;;;;31.57;13.62;;;;;;;12.20;73.68;100461.31;4072780;86;21022;-82
2021/10/08 09:07:14;;;;;;;28.67;12.03;;;;;;;12.73;79.69;100460.56;4078005;86;21523;-82
2021/10/08 09:13:16;;;;;;;;;;;;;;;13.25;74.87;100467.98;4078052;86;21063;-82
2021/10/08 09:19:18;;;;;;;23.32;11.25;;;;;;;13.44;77.12;100468.82;4075541;86;20180;-82
2021/10/08 09:25:29;;;;;;;38.55;13.25;;;;;;;13.72;74.89;100465.89;4077467;86;21599;-82
2021/10/08 09:31:43;;;;;;;24.52;11.40;;;;;;;13.82;71.67;100464.77;4078182;80;22573;-82
2021/10/08 09:37:47;;;;;;;21.48;11.20;;;;;;;14.29;70.87;100473.40;4226571;82;113026;-81
2021/10/08 09:43:48;;;;;;;22.50;10.40;;;;;;;14.53;72.58;100473.09;4230141;82;21553;-81
2021/10/08 09:49:52;;;;;;;20.68;10.63;;;;;;;15.05;70.43;100468.48;4255372;82;21681;-83
2021/10/08 09:55:54;;;;;;;20.95;10.40;;;;;;;15.46;70.81;100480.59;4254242;82;21570;-82
2021/10/08 10:02:00;;;;;;;24.57;10.30;;;;;;;15.64;67.81;100470.62;4251906;82;21030;-82
2021/10/08 10:08:02;;;;;;;;;;;;;;;15.52;67.32;100466.68;4255120;82;21679;-82
2021/10/08 10:14:04;;;;;;;20.43;9.78;;;;;;;15.81;64.62;100476.97;4254856;82;20194;-83
2021/10/08 10:20:09;;;;;;;19.82;10.18;;;;;;;15.96;60.51;100475.97;4253725;82;21130;-82
2021/10/08 10:26:11;;;;;;;21.10;9.63;;;;;;;15.67;64.31;100465.73;4258888;82;21563;-82
2021/10/08 10:32:13;;;;;;;16.52;9.40;;;;;;;15.68;62.61;100462.39;4261590;82;20980;-82
2021/10/08 10:38:39;;;;;;;28.23;9.85;;;;;;;15.89;60.22;100462.08;4183827;83;21636;-82
2021/10/08 10:45:05;;;;;;;21.65;9.58;;;;;;;15.63;60.15;100460.72;4194060;83;21033;-82
2021/10/08 10:51:20;;;;;;;20.15;9.65;;;;;;;15.15;58.75;100459.60;4193143;83;21628;-82
2021/10/08 10:57:29;;;;;;;25.77;9.00;;;;;;;15.17;58.56;100461.98;4194309;83;20996;-82
2021/10/08 11:03:33;;;;;;;19.42;9.38;;;;;;;15.08;58.90;100455.34;4192296;83;21150;-82
2021/10/08 11:09:37;;;;;;;20.92;8.58;;;;;;;15.04;59.02;100451.73;4189898;83;21087;-82
2021/10/08 11:15:41;;;;;;;27.27;9.50;;;;;;;14.91;56.97;100448.95;4189808;83;21075;-83
2021/10/08 11:21:45;;;;;;;21.17;9.13;;;;;;;14.71;57.31;100452.95;4207602;83;22368;-82
2021/10/08 11:27:48;;;;;;;20.82;10.13;;;;;;;14.46;57.32;100451.70;4231149;83;21102;-82
2021/10/08 11:33:53;;;;;;;20.90;9.08;;;;;;;14.27;56.39;100445.45;4171183;84;21045;-82
2021/10/08 11:39:55;;;;;;;19.00;9.33;;;;;;;14.43;55.63;100443.36;4096762;86;21077;-84
2021/10/08 11:46:04;;;;;;;22.20;8.85;;;;;;;14.13;53.21;100444.54;4096695;86;21129;-81
2021/10/08 11:52:00;;;;;;;21.02;8.90;;;;;;;13.86;56.07;100444.17;4170985;84;21569;-82
2021/10/08 11:58:11;;;;;;;22.20;9.45;;;;;;;13.78;54.88;100441.86;4170793;84;21033;-81
2021/10/08 12:04:20;;;;;;;21.42;10.08;;;;;;;13.56;53.85;100441.78;4136669;84;21067;-81
2021/10/08 12:10:21;;;;;;;30.05;8.88;;;;;;;13.30;55.14;100439.62;4129611;84;21051;-81
2021/10/08 12:16:39;;;;;;;23.50;9.75;;;;;;;13.28;53.99;100444.67;4096393;86;21164;-81
2021/10/08 12:22:40;;;;;;;19.05;8.63;;;;;;;13.16;53.38;100439.29;4093549;85;21106;-81
2021/10/08 12:28:43;;;;;;;18.60;8.70;;;;;;;13.06;52.61;100434.33;4175063;83;21145;-82
2021/10/08 12:34:54;;;;;;;24.40;9.40;;;;;;;12.97;53.77;100437.81;4080808;85;21096;-81
2021/10/08 12:40:55;;;;;;;20.02;8.05;;;;;;;12.92;53.17;100435.33;4175442;84;21805;-82
2021/10/08 12:47:11;;;;;;;23.75;10.05;;;;;;;12.92;53.34;100440.83;4176719;84;21122;-81
2021/10/08 12:53:19;;;;;;;24.20;9.63;;;;;;;12.96;52.60;100440.92;4175865;84;21026;-82
2021/10/08 12:59:20;;;;;;;22.95;8.63;;;;;;;12.85;52.74;100443.98;4176666;83;21049;-81
2021/10/08 13:05:21;;;;;;;18.67;7.87;;;;;;;12.79;53.14;100435.22;4235059;82;21042;-82
2021/10/08 13:11:22;;;;;;;19.98;8.03;;;;;;;12.74;52.58;100437.42;4238267;82;21405;-81
2021/10/08 13:17:25;;;;;;;19.35;8.20;;;;;;;12.68;53.19;100436.09;4172577;84;21085;-82
2021/10/08 13:23:29;;;;;;;25.12;8.75;;;;;;;12.68;53.26;100443.77;4173414;84;22280;-81
2021/10/08 13:29:29;;;;;;;23.50;8.70;;;;;;;12.71;53.21;100443.06;4097538;85;21042;-82
2021/10/08 13:35:35;;;;;;;24.75;8.03;;;;;;;12.64;52.97;100434.63;4160340;84;87445;-81
2021/10/08 13:41:36;;;;;;;16.23;7.35;;;;;;;12.58;53.33;100425.86;4141212;84;21569;-82
2021/10/08 13:47:40;;;;;;;18.20;7.00;;;;;;;12.58;52.73;100424.48;4152252;84;21078;-80
2021/10/08 13:53:46;;;;;;;21.45;7.15;;;;;;;12.56;53.14;100428.72;4122733;84;21435;-81
2021/10/08 13:59:47;;;;;;;26.82;7.85;;;;;;;12.51;53.31;100424.29;4146177;84;21526;-82
2021/10/08 14:06:13;;;;;;;19.87;7.33;;;;;;;12.48;52.21;100429.12;4152789;84;21121;-82
2021/10/08 14:12:01;;;;;;;31.17;8.98;;;;;;;12.37;51.99;100426.66;4149643;84;21046;-82
2021/10/08 14:18:02;;;;;;;22.52;7.03;;;;;;;12.27;52.69;100427.20;4148240;84;21057;-82
2021/10/08 14:24:04;;;;;;;16.73;7.65;;;;;;;12.28;52.36;100437.02;4157884;84;21119;-82
2021/10/08 14:30:13;;;;;;;21.05;6.55;;;;;;;12.20;52.60;100433.08;4287586;82;21015;-83
2021/10/08 14:36:14;;;;;;;20.08;8.13;;;;;;;12.05;52.31;100431.08;4285284;82;21034;-81
2021/10/08 14:42:15;;;;;;;23.12;7.05;;;;;;;11.93;52.30;100435.25;4285082;82;21404;-81
2021/10/08 14:48:17;;;;;;;21.23;6.87;;;;;;;11.82;52.14;100429.47;4287621;82;21077;-82
2021/10/08 14:54:25;;;;;;;21.87;7.55;;;;;;;11.70;52.42;100436.34;4282007;82;21006;-81
2021/10/08 15:00:26;;;;;;;27.22;12.05;;;;;;;11.66;51.69;100438.20;4285255;82;21113;-82
2021/10/08 15:06:27;;;;;;;38.45;7.37;;;;;;;11.51;51.46;100442.98;4280688;82;21505;-82
2021/10/08 15:12:28;;;;;;;27.27;7.67;;;;;;;11.40;51.32;100452.83;4284166;82;21079;-81
2021/10/08 15:18:30;;;;;;;17.95;6.67;;;;;;;11.29;51.56;100448.96;4280462;82;21030;-83
2021/10/08 15:24:32;;;;;;;27.50;6.80;;;;;;;11.18;51.36;100451.97;4275556;82;21078;-83
2021/10/08 15:30:34;;;;;;;22.35;6.50;;;;;;;11.05;51.42;100456.66;4277058;82;21855;-83
2021/10/08 15:36:36;;;;;;;21.85;6.50;;;;;;;10.86;51.59;100468.75;4274353;82;21494;-82
2021/10/08 15:42:38;;;;;;;17.92;6.55;;;;;;;10.70;51.63;100473.28;4329714;80;21046;-83
2021/10/08 15:48:39;;;;;;;22.73;6.95;;;;;;;10.56;51.71;100471.44;4330355;80;21066;-82
2021/10/08 15:54:40;;;;;;;25.00;6.37;;;;;;;10.37;51.68;100472.52;4325105;80;25815;-83
2021/10/08 16:00:42;;;;;;;18.87;5.83;;;;;;;10.26;51.57;100480.92;4326245;81;21043;-82
2021/10/08 16:06:44;;;;;;;23.35;6.00;;;;;;;10.14;51.83;100493.20;4330938;81;21506;-81
2021/10/08 16:12:45;;;;;;;26.65;6.92;;;;;;;10.01;51.75;100501.64;4332747;81;21070;-82
2021/10/08 16:18:49;;;;;;;15.23;5.10;;;;;;;9.86;52.02;100503.06;4333772;81;21086;-81
2021/10/08 16:24:50;;;;;;;19.75;5.20;;;;;;;9.71;52.26;100508.33;4325962;81;21019;-83
2021/10/08 16:30:51;;;;;;;20.50;5.85;;;;;;;9.55;52.43;100522.56;4323282;81;21119;-81
2021/10/08 16:36:57;;;;;;;16.12;6.05;;;;;;;9.38;52.62;100524.63;4327190;81;21023;-82
2021/10/08 16:42:58;;;;;;;22.52;6.60;;;;;;;9.21;52.87;100523.31;4328472;81;21049;-81
2021/10/08 16:48:59;;;;;;;24.85;7.55;;;;;;;9.08;53.00;100527.88;4325901;81;20963;-81
2021/10/08 16:55:04;;;;;;;22.20;6.85;;;;;;;8.90;53.26;100533.19;4326347;81;21058;-82
2021/10/08 17:01:06;;;;;;;16.30;5.67;;;;;;;8.74;53.58;100530.73;4323218;81;21492;-82
2021/10/08 17:07:07;;;;;;;26.75;6.70;;;;;;;8.64;54.08;100535.20;4310823;81;21486;-81
2021/10/08 17:13:08;;;;;;;17.65;7.42;;;;;;;8.46;54.43;100539.07;4312868;81;21015;-82
2021/10/08 17:19:10;;;;;;;27.80;7.45;;;;;;;8.25;54.55;100551.79;4315402;81;21106;-81
2021/10/08 17:25:21;;;;;;;23.07;8.90;;;;;;;8.07;54.85;100550.14;4317877;81;21102;-82
2021/10/08 17:37:39;;;;;;;29.90;11.20;;;;;;;7.69;55.76;100555.95;4318348;81;20959;-82
2021/10/08 17:43:44;;;;;;;25.35;8.75;;;;;;;7.59;56.02;100559.80;4322581;81;21062;-82
2021/10/08 17:49:46;;;;;;;28.92;8.28;;;;;;;7.44;56.52;100558.86;4311614;81;21495;-82
2021/10/08 17:55:47;;;;;;;25.37;8.75;;;;;;;7.34;56.84;100556.45;4322119;81;21058;-82
2021/10/08 18:01:48;;;;;;;21.97;8.98;;;;;;;7.27;57.43;100566.17;4315780;81;21074;-82
2021/10/08 18:07:50;;;;;;;24.02;11.00;;;;;;;7.12;57.52;100559.25;4320729;81;20995;-82
2021/10/08 18:13:51;;;;;;;26.37;11.08;;;;;;;7.00;58.00;100573.98;4319538;81;21011;-82
2021/10/08 18:19:55;;;;;;;28.62;11.95;;;;;;;6.92;58.36;100572.60;4317961;81;21000;-81
2021/10/08 18:25:56;;;;;;;30.92;11.10;;;;;;;6.86;58.96;100576.58;4312055;81;21118;-82
2021/10/08 18:31:58;;;;;;;30.55;12.45;;;;;;;6.77;59.24;100578.42;4320227;81;21067;-81
2021/10/08 18:37:59;;;;;;;28.60;12.35;;;;;;;6.71;59.87;100590.56;4320080;81;21074;-81
2021/10/08 18:44:00;;;;;;;31.52;13.32;;;;;;;6.65;60.41;100585.82;4316260;81;20995;-81
2021/10/08 18:50:03;;;;;;;28.32;12.13;;;;;;;6.63;60.57;100589.40;4318387;81;21526;-82
2021/10/08 18:56:05;;;;;;;36.13;13.55;;;;;;;6.49;60.81;100594.66;4325993;81;21063;-81
2021/10/08 19:02:07;;;;;;;28.50;13.55;;;;;;;6.36;60.98;100594.41;4318812;81;21687;-81
2021/10/08 19:08:09;;;;;;;31.05;12.37;;;;;;;6.31;61.42;100593.74;4318643;81;21038;-82
2021/10/08 19:14:28;;;;;;;35.00;13.00;;;;;;;6.26;61.80;100600.66;4320011;81;21514;-81
2021/10/08 19:20:22;;;;;;;34.50;12.82;;;;;;;6.25;62.24;100594.41;4313469;81;21050;-82
2021/10/08 19:26:23;;;;;;;38.00;15.38;;;;;;;6.24;62.65;100594.16;4303262;81;21098;-82
2021/10/08 19:32:26;;;;;;;31.57;13.93;;;;;;;6.22;63.06;100593.66;4290921;81;21028;-82
2021/10/08 19:38:27;;;;;;;24.65;13.75;;;;;;;6.15;63.29;100593.84;4292586;81;21058;-83
2021/10/08 19:44:31;;;;;;;29.98;12.98;;;;;;;6.03;63.35;100598.45;4285333;81;21027;-82
2021/10/08 19:50:35;;;;;;;29.82;13.03;;;;;;;6.00;64.23;100596.89;4289845;81;21548;-83
2021/10/08 19:56:36;;;;;;;29.90;13.43;;;;;;;5.95;64.23;100597.81;4291968;81;21067;-83
2021/10/08 20:02:48;;;;;;;27.65;12.95;;;;;;;5.90;64.96;100601.20;4289708;81;21042;-83
2021/10/08 20:15:10;;;;;;;26.40;11.45;;;;;;;5.83;65.29;100602.98;4290088;81;21048;-82
2021/10/08 20:21:14;;;;;;;30.30;12.00;;;;;;;5.76;65.89;100600.40;4288549;81;21096;-83
2021/10/08 20:27:15;;;;;;;28.17;11.88;;;;;;;5.71;65.63;100617.62;4292849;81;22115;-82
2021/10/08 20:33:25;;;;;;;24.60;10.23;;;;;;;5.66;66.31;100611.47;4291754;81;21591;-82
2021/10/08 20:39:26;;;;;;;27.00;10.70;;;;;;;5.57;65.87;100617.37;4292608;81;20980;-82
2021/10/08 20:45:27;;;;;;;22.02;10.72;;;;;;;5.55;66.19;100616.85;4291001;81;21087;-81
2021/10/08 20:51:29;;;;;;;31.95;11.25;;;;;;;5.54;66.43;100619.33;4294034;81;21506;-82
2021/10/08 20:57:30;;;;;;;29.42;12.20;;;;;;;5.45;66.62;100611.64;4291993;81;21567;-82
2021/10/08 21:03:31;;;;;;;22.95;11.22;;;;;;;5.36;67.10;100614.25;4292772;81;21087;-82
2021/10/08 21:09:32;;;;;;;22.70;11.12;;;;;;;5.31;67.27;100620.34;4294890;81;21019;-83
2021/10/08 21:15:35;;;;;;;28.38;11.93;;;;;;;5.14;66.90;100621.48;4293872;81;21472;-82
2021/10/08 21:21:36;;;;;;;26.87;11.88;;;;;;;4.96;67.24;100619.63;4161853;84;21823;-82
2021/10/08 21:27:38;;;;;;;22.90;11.30;;;;;;;4.97;68.26;100623.41;4173479;84;21161;-82
2021/10/08 21:33:41;;;;;;;34.23;13.35;;;;;;;5.06;67.92;100620.24;4182440;84;21166;-82
2021/10/08 21:45:48;;;;;;;30.60;12.37;;;;;;;5.06;69.89;100612.10;4181917;84;21118;-83
2021/10/08 21:51:50;;;;;;;22.17;11.22;;;;;;;5.03;69.44;100606.48;4149917;84;21071;-82
2021/10/08 21:57:51;;;;;;;30.40;11.18;;;;;;;4.83;69.75;100607.64;4309011;81;21051;-82
2021/10/08 22:04:02;;;;;;;22.15;10.75;;;;;;;4.70;70.15;100599.72;4178583;83;21046;-82
2021/10/08 22:10:04;;;;;;;26.50;11.33;;;;;;;4.75;71.02;100601.54;4302912;81;21027;-82
2021/10/08 22:16:07;;;;;;;27.55;11.38;;;;;;;4.77;70.99;100606.94;4308723;81;21527;-83
2021/10/08 22:22:08;;;;;;;31.80;10.82;;;;;;;4.78;71.65;100596.87;4308221;81;21146;-82
2021/10/08 22:28:26;;;;;;;27.62;10.72;;;;;;;4.89;71.68;100596.95;4291858;81;21008;-82
2021/10/08 22:34:20;;;;;;;25.05;10.63;;;;;;;4.83;71.65;100596.79;4287574;81;21027;-81
2021/10/08 22:40:21;;;;;;;31.50;10.48;;;;;;;4.77;71.91;100596.63;4295974;81;22085;-82
2021/10/08 22:46:23;;;;;;;25.45;11.10;;;;;;;4.80;72.21;100600.92;4291178;81;21661;-82
2021/10/08 22:52:24;;;;;;;22.60;10.75;;;;;;;4.84;72.45;100600.56;4291413;81;21914;-82
2021/10/08 22:58:25;;;;;;;20.17;10.00;;;;;;;4.85;72.50;100590.52;4293548;81;21068;-82
2021/10/08 23:04:27;;;;;;;25.43;10.93;;;;;;;4.80;72.80;100591.96;4293375;81;21102;-83
2021/10/08 23:10:41;;;;;;;21.33;10.60;;;;;;;4.73;72.72;100593.70;4293512;81;21063;-82
2021/10/08 23:16:37;;;;;;;25.00;10.90;;;;;;;4.63;72.93;100602.03;4291999;81;21559;-82
2021/10/08 23:22:38;;;;;;;22.95;10.13;;;;;;;4.55;73.07;100593.21;4287669;81;21055;-82
2021/10/08 23:28:39;;;;;;;19.80;10.43;;;;;;;4.55;73.48;100605.95;4311053;81;21035;-82
2021/10/08 23:34:40;;;;;;;26.60;10.32;;;;;;;4.51;73.25;100600.88;4312593;81;21094;-82
2021/10/08 23:40:42;;;;;;;24.05;10.60;;;;;;;4.27;73.07;100601.53;4317891;81;22026;-82
2021/10/08 23:46:43;;;;;;;21.30;10.25;;;;;;;4.14;73.04;100597.66;4315865;81;21118;-82
2021/10/08 23:52:44;;;;;;;24.95;10.38;;;;;;;4.02;73.25;100597.84;4317007;81;21015;-82
2021/10/08 23:58:45;;;;;;;23.45;9.58;;;;;;;4.04;73.01;100595.08;4312997;81;21522;-81
